Time;durP1;ratioP1;P1;durP2;ratioP2;P2;SDS_P1;SDS_P2;PMS_P1;PMS_P2;Temp;Humidity;BMP_temperature;BMP_pressure;BME280_temperature;BME280_humidity;BME280_pressure;Samples;Min_cycle;Max_cycle;Signal;HPM_P1;HPM_P2
2023/09/07 00:02:23;;;;;;;167.27;156.70;;;26.60;99.90;;;;;;5050984;28;20037;-76
2023/09/07 00:04:49;;;;;;;188.85;176.00;;;26.60;99.90;;;;;;5050797;28;20499;-76
2023/09/07 00:07:15;;;;;;;188.05;176.20;;;26.60;99.90;;;;;;5043966;28;20387;-76
2023/09/07 00:09:41;;;;;;;183.15;171.98;;;26.60;99.90;;;;;;5031947;28;20060;-76
2023/09/07 00:12:07;;;;;;;189.98;178.55;;;26.60;99.90;;;;;;5048011;28;20025;-76
2023/09/07 00:14:34;;;;;;;168.95;158.00;;;26.50;99.90;;;;;;5034151;28;20044;-76
2023/09/07 00:17:00;;;;;;;199.20;187.65;;;26.50;99.90;;;;;;5050737;28;20056;-76
2023/09/07 00:19:27;;;;;;;288.83;272.00;;;26.50;99.90;;;;;;5052029;28;20486;-75
2023/09/07 00:21:53;;;;;;;340.48;321.38;;;26.50;99.90;;;;;;5051551;28;20036;-76
2023/09/07 00:24:19;;;;;;;260.95;245.82;;;26.40;99.90;;;;;;5051861;28;20040;-76
2023/09/07 00:26:45;;;;;;;256.42;240.98;;;26.50;99.90;;;;;;5051435;28;20041;-76
2023/09/07 00:29:11;;;;;;;189.55;177.57;;;26.40;99.90;;;;;;5051895;28;20029;-76
2023/09/07 00:31:37;;;;;;;300.95;284.35;;;26.40;99.90;;;;;;5050708;28;20037;-77
2023/09/07 00:34:03;;;;;;;244.70;230.50;;;26.40;99.90;;;;;;5051773;28;20032;-76
2023/09/07 00:36:30;;;;;;;268.85;253.95;;;26.40;99.90;;;;;;5051208;28;20033;-76
2023/09/07 00:38:56;;;;;;;265.42;249.88;;;26.50;99.90;;;;;;5051715;28;20044;-76
2023/09/07 00:41:22;;;;;;;214.30;200.57;;;26.40;99.90;;;;;;5050034;28;20045;-76
2023/09/07 00:43:48;;;;;;;167.30;157.18;;;26.40;99.90;;;;;;5051723;28;20383;-76
2023/09/07 00:46:15;;;;;;;169.38;158.50;;;26.30;99.90;;;;;;5052118;28;20033;-76
2023/09/07 00:48:41;;;;;;;128.80;120.53;;;26.20;99.90;;;;;;5055280;28;20483;-76
2023/09/07 00:51:07;;;;;;;146.00;137.23;;;26.20;99.90;;;;;;5054003;28;20036;-76
2023/09/07 00:53:33;;;;;;;135.07;125.85;;;26.10;99.90;;;;;;5055241;28;20391;-77
2023/09/07 00:55:59;;;;;;;172.82;161.68;;;26.10;99.90;;;;;;5055218;28;20036;-76
2023/09/07 00:58:25;;;;;;;181.07;170.63;;;26.10;99.90;;;;;;5054304;28;20041;-76
2023/09/07 01:00:51;;;;;;;146.80;137.35;;;26.10;99.90;;;;;;5052916;28;20044;-76
2023/09/07 01:03:17;;;;;;;153.88;144.63;;;26.00;99.90;;;;;;5055327;28;20044;-77
2023/09/07 01:05:50;;;;;;;160.73;151.15;;;26.00;99.90;;;;;;5054909;28;20355;-76
2023/09/07 01:08:49;;;;;;;171.90;161.10;;;26.00;99.90;;;;;;5053853;28;20021;-76
2023/09/07 01:11:16;;;;;;;177.65;166.60;;;26.00;99.90;;;;;;5042320;28;20037;-76
2023/09/07 01:13:42;;;;;;;241.13;226.70;;;25.90;99.90;;;;;;5054197;28;20064;-76
2023/09/07 01:16:13;;;;;;;204.23;192.52;;;26.00;99.90;;;;;;5053572;28;20029;-76
2023/09/07 01:18:39;;;;;;;209.63;197.23;;;25.90;99.90;;;;;;5053832;28;20029;-76
2023/09/07 01:21:09;;;;;;;213.43;200.52;;;26.00;99.90;;;;;;5054669;28;20029;-77
2023/09/07 01:23:42;;;;;;;187.65;176.73;;;26.00;99.90;;;;;;5053625;28;20032;-76
2023/09/07 01:26:08;;;;;;;180.80;169.38;;;25.90;99.90;;;;;;5037231;28;20032;-77
2023/09/07 01:28:35;;;;;;;169.27;158.82;;;25.80;99.90;;;;;;5036465;28;20502;-76
2023/09/07 01:31:01;;;;;;;162.90;152.43;;;25.80;99.90;;;;;;5052443;28;20037;-76
2023/09/07 01:33:27;;;;;;;156.30;146.02;;;25.80;99.90;;;;;;5054923;28;20029;-76
2023/09/07 01:35:53;;;;;;;199.32;187.57;;;25.80;99.90;;;;;;5054378;28;20033;-76
2023/09/07 01:38:19;;;;;;;175.77;165.25;;;25.70;99.90;;;;;;5054575;28;20048;-77
2023/09/07 01:40:46;;;;;;;150.40;140.93;;;25.70;99.90;;;;;;5053839;28;20040;-76
2023/09/07 01:43:12;;;;;;;132.85;123.90;;;25.60;99.90;;;;;;5054264;28;20025;-76
2023/09/07 01:45:38;;;;;;;138.20;129.63;;;25.60;99.90;;;;;;5053632;28;20044;-76
2023/09/07 01:48:09;;;;;;;180.07;169.68;;;25.60;99.90;;;;;;5052861;28;20033;-76
2023/09/07 01:50:36;;;;;;;125.43;117.50;;;25.70;99.90;;;;;;5051989;28;20471;-76
2023/09/07 01:53:04;;;;;;;136.13;127.70;;;25.60;99.90;;;;;;5054206;28;20120;-76
2023/09/07 01:55:31;;;;;;;141.32;132.50;;;25.60;99.90;;;;;;5053897;28;20040;-76
2023/09/07 01:57:57;;;;;;;133.95;125.43;;;25.50;99.90;;;;;;5053647;28;20029;-76
2023/09/07 02:00:23;;;;;;;123.47;115.75;;;25.50;99.90;;;;;;5053514;28;20036;-76
2023/09/07 02:02:49;;;;;;;139.88;131.25;;;25.40;99.90;;;;;;5054126;28;20029;-76
2023/09/07 02:05:16;;;;;;;157.65;148.23;;;25.40;99.90;;;;;;5053919;28;20029;-77
2023/09/07 02:07:43;;;;;;;124.50;116.45;;;25.50;99.90;;;;;;5051731;28;20056;-76
2023/09/07 02:10:09;;;;;;;143.45;134.18;;;25.50;99.90;;;;;;5053623;28;20036;-76
2023/09/07 02:12:35;;;;;;;111.72;104.22;;;25.50;99.90;;;;;;5036611;28;20017;-76
2023/09/07 02:15:02;;;;;;;173.15;162.70;;;25.50;99.90;;;;;;5033706;28;20061;-76
2023/09/07 02:17:30;;;;;;;134.30;125.57;;;25.50;99.90;;;;;;5051647;28;20045;-76
2023/09/07 02:19:56;;;;;;;139.25;130.27;;;25.40;99.90;;;;;;5053589;28;20480;-76
2023/09/07 02:22:22;;;;;;;165.93;155.45;;;25.30;99.90;;;;;;5053494;28;20033;-76
2023/09/07 02:24:48;;;;;;;157.65;148.02;;;25.30;99.90;;;;;;5053680;28;20052;-76
2023/09/07 02:27:14;;;;;;;124.80;116.97;;;25.30;99.90;;;;;;5052890;28;20030;-76
2023/09/07 02:29:40;;;;;;;102.88;96.25;;;25.30;99.90;;;;;;5053601;28;20109;-76
2023/09/07 02:32:07;;;;;;;116.55;108.18;;;25.30;99.90;;;;;;5052530;28;20500;-76
2023/09/07 02:34:36;;;;;;;144.75;136.32;;;25.30;99.90;;;;;;5051979;28;20044;-76
2023/09/07 02:37:03;;;;;;;152.48;142.95;;;25.30;99.90;;;;;;5052780;28;20068;-77
2023/09/07 02:39:29;;;;;;;140.43;131.45;;;25.30;99.90;;;;;;5053501;28;20035;-76
2023/09/07 02:41:55;;;;;;;117.03;109.65;;;25.20;99.90;;;;;;5052779;28;20116;-76
2023/09/07 02:44:21;;;;;;;99.30;92.97;;;25.20;99.90;;;;;;5053451;28;20032;-76
2023/09/07 02:46:47;;;;;;;107.70;100.70;;;25.20;99.90;;;;;;5052581;28;20055;-76
2023/09/07 02:49:13;;;;;;;91.05;84.80;;;25.20;99.90;;;;;;5051816;28;20402;-76
2023/09/07 02:51:39;;;;;;;105.70;98.72;;;25.10;99.90;;;;;;5052867;28;20029;-76
2023/09/07 02:54:05;;;;;;;98.82;91.78;;;25.10;99.90;;;;;;5053126;28;20028;-76
2023/09/07 02:56:32;;;;;;;98.90;92.38;;;24.90;99.90;;;;;;5052439;28;20493;-76
2023/09/07 02:58:58;;;;;;;108.10;100.97;;;25.00;99.90;;;;;;5053118;28;20033;-76
2023/09/07 03:01:24;;;;;;;129.93;121.85;;;24.90;99.90;;;;;;5052265;28;20402;-76
2023/09/07 03:03:50;;;;;;;102.60;94.82;;;24.90;99.90;;;;;;5052408;28;20040;-76
2023/09/07 03:06:16;;;;;;;86.38;80.32;;;24.90;99.90;;;;;;5052566;28;20029;-76
2023/09/07 03:08:43;;;;;;;105.22;98.18;;;24.80;99.90;;;;;;5051797;28;20041;-76
2023/09/07 03:11:09;;;;;;;98.70;91.78;;;24.70;99.90;;;;;;5052405;28;20056;-77
2023/09/07 03:13:35;;;;;;;94.25;87.20;;;24.80;99.90;;;;;;5052352;28;20410;-76
2023/09/07 03:16:02;;;;;;;95.47;88.80;;;24.80;99.90;;;;;;5052138;28;20438;-76
2023/09/07 03:18:28;;;;;;;92.60;85.30;;;24.80;99.90;;;;;;5051161;28;20053;-76
2023/09/07 03:20:55;;;;;;;91.57;85.38;;;24.80;99.90;;;;;;5052373;28;20029;-76
2023/09/07 03:23:22;;;;;;;90.97;84.97;;;24.70;99.90;;;;;;5052467;28;20498;-76
2023/09/07 03:25:48;;;;;;;86.97;81.18;;;24.70;99.90;;;;;;5050899;28;20437;-76
2023/09/07 03:28:14;;;;;;;95.25;88.10;;;24.60;99.90;;;;;;5052608;28;20035;-76
2023/09/07 03:30:40;;;;;;;106.40;99.22;;;24.60;99.90;;;;;;5052017;28;20446;-76
2023/09/07 03:33:06;;;;;;;112.88;105.75;;;24.60;99.90;;;;;;5051324;28;20033;-76
2023/09/07 03:35:33;;;;;;;121.57;114.15;;;24.60;99.90;;;;;;5052268;28;20379;-76
2023/09/07 03:37:59;;;;;;;87.30;81.35;;;24.60;99.90;;;;;;5052388;28;20048;-76
2023/09/07 03:40:25;;;;;;;97.78;90.97;;;24.60;99.90;;;;;;5050759;28;20025;-76
2023/09/07 03:42:51;;;;;;;83.25;77.05;;;24.70;99.90;;;;;;5050457;28;20037;-76
2023/09/07 03:45:17;;;;;;;95.78;88.80;;;24.40;99.90;;;;;;5051486;28;20407;-77
2023/09/07 03:47:44;;;;;;;83.13;76.65;;;24.40;99.90;;;;;;5052294;28;20029;-76
2023/09/07 03:50:10;;;;;;;98.32;91.88;;;24.30;99.90;;;;;;5051935;28;20494;-77
2023/09/07 03:52:36;;;;;;;86.18;79.55;;;24.20;99.90;;;;;;5052019;28;20041;-77
2023/09/07 03:55:03;;;;;;;81.60;75.85;;;24.20;99.90;;;;;;5052071;28;20021;-76
2023/09/07 03:57:29;;;;;;;79.25;73.75;;;24.20;99.90;;;;;;5051533;28;20064;-76
2023/09/07 03:59:56;;;;;;;93.15;86.40;;;24.30;99.90;;;;;;5052324;28;20032;-77
2023/09/07 04:02:22;;;;;;;73.50;67.18;;;24.10;99.90;;;;;;5051414;28;20047;-76
2023/09/07 04:04:52;;;;;;;71.05;65.32;;;24.10;99.90;;;;;;5052106;28;20033;-76
2023/09/07 04:07:18;;;;;;;71.47;65.57;;;24.10;99.90;;;;;;5044865;28;20035;-76
2023/09/07 04:09:45;;;;;;;78.45;72.72;;;24.20;99.90;;;;;;5031807;28;20033;-76
2023/09/07 04:12:11;;;;;;;74.20;68.55;;;24.20;99.90;;;;;;5048554;28;20032;-76
2023/09/07 04:14:38;;;;;;;76.20;70.13;;;24.20;99.90;;;;;;5052011;28;20392;-77
2023/09/07 04:17:04;;;;;;;71.18;65.90;;;24.30;99.90;;;;;;5051723;28;20045;-76
2023/09/07 04:19:31;;;;;;;77.43;71.70;;;24.20;99.90;;;;;;5052403;28;20029;-76
2023/09/07 04:21:57;;;;;;;78.85;72.32;;;24.20;99.90;;;;;;5054795;28;20048;-77
2023/09/07 04:24:23;;;;;;;94.07;87.70;;;24.20;99.90;;;;;;5037826;28;20041;-76
2023/09/07 04:26:49;;;;;;;76.07;70.80;;;24.20;99.90;;;;;;5055727;28;20037;-77
2023/09/07 04:29:16;;;;;;;80.47;74.57;;;24.20;99.90;;;;;;5054408;28;20048;-77
2023/09/07 04:31:42;;;;;;;115.30;107.97;;;24.10;99.90;;;;;;5055274;28;20052;-76
2023/09/07 04:34:08;;;;;;;117.65;110.20;;;24.10;99.90;;;;;;5055930;28;20059;-77
2023/09/07 04:36:34;;;;;;;103.97;97.55;;;24.10;99.90;;;;;;5055082;28;20037;-76
2023/09/07 04:39:00;;;;;;;127.65;119.85;;;24.10;99.90;;;;;;5055280;28;20052;-76
2023/09/07 04:41:26;;;;;;;110.35;102.25;;;24.10;99.90;;;;;;5055040;28;20041;-76
2023/09/07 04:43:52;;;;;;;94.50;88.18;;;24.10;99.90;;;;;;5055876;28;20036;-77
2023/09/07 04:46:21;;;;;;;116.07;108.75;;;24.10;99.90;;;;;;5054544;28;20036;-77
2023/09/07 04:48:47;;;;;;;126.50;119.15;;;24.10;99.90;;;;;;5055562;28;20029;-77
2023/09/07 04:51:13;;;;;;;106.13;99.25;;;24.10;99.90;;;;;;5055211;28;20040;-77
2023/09/07 04:53:39;;;;;;;94.30;87.70;;;24.10;99.90;;;;;;5055018;28;20040;-76
2023/09/07 04:56:06;;;;;;;100.05;93.10;;;24.10;99.90;;;;;;5055070;28;20040;-76
2023/09/07 04:58:32;;;;;;;144.27;135.65;;;24.10;99.90;;;;;;5054151;28;20040;-76
2023/09/07 05:01:03;;;;;;;191.32;180.15;;;24.00;99.90;;;;;;5054525;28;20462;-77
2023/09/07 05:03:29;;;;;;;120.55;112.85;;;23.90;99.90;;;;;;5055228;28;20025;-77
2023/09/07 05:05:56;;;;;;;117.63;110.32;;;23.90;99.90;;;;;;5052887;28;20386;-76
2023/09/07 05:08:24;;;;;;;150.85;142.25;;;23.90;99.90;;;;;;5054508;28;20495;-76
2023/09/07 05:10:57;;;;;;;128.27;120.40;;;23.80;99.90;;;;;;5055173;28;20409;-76
2023/09/07 05:13:24;;;;;;;179.27;169.63;;;23.80;99.90;;;;;;5059252;28;20095;-76
2023/09/07 05:15:50;;;;;;;161.77;152.70;;;23.90;99.90;;;;;;5054257;28;20033;-77
2023/09/07 05:18:17;;;;;;;106.40;99.20;;;23.90;99.90;;;;;;5053617;28;20384;-76
2023/09/07 05:20:48;;;;;;;113.45;106.40;;;23.90;99.90;;;;;;5052712;28;20041;-76
2023/09/07 05:23:15;;;;;;;111.75;104.25;;;23.90;99.90;;;;;;5052942;28;20056;-77
2023/09/07 05:26:02;;;;;;;159.05;149.95;;;23.90;99.90;;;;;;5054560;28;20029;-77
2023/09/07 05:28:28;;;;;;;106.47;99.82;;;23.90;99.90;;;;;;5053367;28;20037;-76
2023/09/07 05:30:54;;;;;;;143.27;134.95;;;23.80;99.90;;;;;;5053318;28;20033;-77
2023/09/07 05:33:20;;;;;;;121.22;113.00;;;23.80;99.90;;;;;;5054297;28;20029;-76
2023/09/07 05:35:46;;;;;;;174.25;164.43;;;23.70;99.90;;;;;;5054046;28;20025;-76
2023/09/07 05:38:12;;;;;;;133.40;125.55;;;23.70;99.90;;;;;;5054575;28;20048;-77
2023/09/07 05:40:42;;;;;;;84.15;78.63;;;23.50;99.90;;;;;;5054377;28;20025;-77
2023/09/07 05:43:08;;;;;;;133.43;125.73;;;23.30;99.90;;;;;;5054729;28;20036;-77
2023/09/07 05:45:36;;;;;;;104.13;97.82;;;23.30;99.90;;;;;;5053679;28;20037;-77
2023/09/07 05:48:03;;;;;;;88.07;82.55;;;23.30;99.90;;;;;;5054233;28;20029;-76
2023/09/07 05:50:29;;;;;;;85.45;79.78;;;23.20;99.90;;;;;;5053508;28;20037;-77
2023/09/07 05:52:55;;;;;;;81.40;76.18;;;23.30;99.90;;;;;;5054230;28;20059;-76
2023/09/07 05:55:21;;;;;;;177.48;167.70;;;23.40;99.90;;;;;;5052430;28;20032;-76
2023/09/07 05:57:48;;;;;;;69.53;64.72;;;23.40;99.90;;;;;;5053873;28;20107;-77
2023/09/07 06:00:16;;;;;;;73.97;68.70;;;23.10;99.90;;;;;;5053404;28;20029;-76
2023/09/07 06:02:44;;;;;;;132.55;124.63;;;22.80;99.90;;;;;;5053698;28;20490;-76
2023/09/07 06:05:10;;;;;;;79.88;74.22;;;22.60;99.90;;;;;;5053608;28;20036;-77
2023/09/07 06:07:37;;;;;;;82.63;76.68;;;22.50;99.90;;;;;;5016039;28;20037;-77
2023/09/07 06:10:05;;;;;;;104.07;97.10;;;22.60;99.90;;;;;;5032540;28;20068;-76
2023/09/07 06:12:32;;;;;;;103.38;97.25;;;22.70;99.90;;;;;;5052934;28;20041;-77
2023/09/07 06:14:59;;;;;;;100.97;94.47;;;22.70;99.90;;;;;;5052611;28;20052;-76
2023/09/07 06:17:25;;;;;;;87.35;81.47;;;22.80;99.90;;;;;;5053144;28;20407;-76
2023/09/07 06:19:51;;;;;;;117.88;110.85;;;22.70;99.90;;;;;;5053650;28;20033;-76
2023/09/07 06:22:17;;;;;;;123.13;115.35;;;22.60;99.90;;;;;;5053316;28;20033;-76
2023/09/07 06:24:43;;;;;;;163.35;153.80;;;22.70;99.90;;;;;;5053823;28;20033;-77
2023/09/07 06:27:09;;;;;;;114.80;108.10;;;22.60;99.90;;;;;;5053407;28;20047;-77
2023/09/07 06:29:35;;;;;;;116.75;109.32;;;22.70;99.90;;;;;;5053712;28;20021;-77
2023/09/07 06:32:01;;;;;;;106.55;99.80;;;22.70;99.90;;;;;;5052575;28;20042;-76
2023/09/07 06:34:27;;;;;;;167.77;158.15;;;22.60;99.90;;;;;;5053347;28;20029;-76
2023/09/07 06:36:53;;;;;;;68.95;64.47;;;22.70;99.90;;;;;;5052454;28;20394;-77
2023/09/07 06:39:20;;;;;;;71.70;66.80;;;22.80;99.90;;;;;;5053496;28;20053;-76
2023/09/07 06:41:46;;;;;;;105.43;99.18;;;23.00;99.90;;;;;;5052804;28;20529;-77
2023/09/07 06:44:12;;;;;;;90.10;84.85;;;23.00;99.90;;;;;;5051806;28;20395;-77
2023/09/07 06:46:38;;;;;;;137.98;129.93;;;23.10;99.90;;;;;;5052653;28;20041;-77
2023/09/07 06:49:04;;;;;;;266.40;252.02;;;23.20;99.90;;;;;;5053041;28;20395;-77
2023/09/07 06:51:31;;;;;;;152.80;144.20;;;23.30;99.90;;;;;;5052949;28;20024;-76
2023/09/07 06:53:57;;;;;;;153.77;145.52;;;23.40;99.90;;;;;;5053173;28;20032;-77
2023/09/07 06:56:23;;;;;;;177.38;167.38;;;23.50;99.90;;;;;;5052837;28;20025;-76
2023/09/07 06:58:49;;;;;;;157.75;149.30;;;23.40;99.90;;;;;;5052355;28;20491;-76
2023/09/07 07:01:15;;;;;;;204.88;194.15;;;23.70;99.90;;;;;;5033892;28;20033;-77
2023/09/07 07:03:41;;;;;;;204.43;193.43;;;24.00;99.90;;;;;;5052601;28;20525;-77
2023/09/07 07:06:08;;;;;;;271.63;257.63;;;24.00;99.90;;;;;;5052185;28;20045;-76
2023/09/07 07:08:34;;;;;;;211.07;199.95;;;24.10;99.90;;;;;;5035768;28;20033;-77
2023/09/07 07:11:00;;;;;;;248.13;235.15;;;24.30;99.90;;;;;;5039530;28;20048;-77
2023/09/07 07:13:26;;;;;;;210.50;199.40;;;24.20;99.90;;;;;;5052690;28;20049;-76
2023/09/07 07:15:52;;;;;;;225.00;212.73;;;24.40;99.90;;;;;;5051701;28;20507;-76
2023/09/07 07:18:18;;;;;;;210.15;198.93;;;24.30;99.90;;;;;;5052540;28;20041;-77
2023/09/07 07:20:44;;;;;;;295.02;279.05;;;24.40;99.90;;;;;;5052239;28;20479;-77
2023/09/07 07:23:11;;;;;;;247.48;233.88;;;24.50;99.90;;;;;;5052845;28;20044;-77
2023/09/07 07:25:37;;;;;;;361.52;341.83;;;24.60;99.90;;;;;;5051984;28;20037;-77
2023/09/07 07:28:07;;;;;;;409.73;387.00;;;24.60;99.90;;;;;;5052487;28;20033;-76
2023/09/07 07:30:33;;;;;;;350.33;331.30;;;24.60;99.90;;;;;;5051976;28;20062;-77
2023/09/07 07:33:00;;;;;;;366.27;346.08;;;24.60;99.90;;;;;;5050991;28;20033;-77
2023/09/07 07:35:26;;;;;;;352.27;332.73;;;24.70;99.90;;;;;;5052098;28;20052;-77
2023/09/07 07:37:52;;;;;;;386.08;365.05;;;24.80;99.90;;;;;;5052437;28;20042;-77
2023/09/07 07:40:18;;;;;;;447.02;421.80;;;24.80;99.90;;;;;;5051820;28;20383;-77
2023/09/07 07:42:46;;;;;;;396.60;374.52;;;25.00;99.90;;;;;;5051175;28;20411;-77
2023/09/07 07:45:12;;;;;;;260.35;246.98;;;25.10;99.90;;;;;;5050994;28;20048;-76
2023/09/07 07:47:40;;;;;;;255.10;242.00;;;25.40;99.90;;;;;;5050277;28;20033;-76
2023/09/07 07:50:06;;;;;;;296.85;281.38;;;25.60;99.90;;;;;;5052282;28;20032;-77
2023/09/07 07:52:32;;;;;;;323.52;307.05;;;25.70;99.90;;;;;;5051825;28;20033;-77
2023/09/07 07:54:58;;;;;;;418.58;395.77;;;26.00;99.90;;;;;;5050101;28;20395;-76
2023/09/07 07:57:24;;;;;;;346.17;327.10;;;26.20;99.90;;;;;;5051792;28;20029;-76
2023/09/07 07:59:50;;;;;;;407.92;385.30;;;26.30;99.90;;;;;;5052049;28;20057;-77
2023/09/07 08:02:17;;;;;;;352.55;333.35;;;26.40;99.90;;;;;;5050960;28;20025;-76
2023/09/07 08:04:43;;;;;;;440.00;415.48;;;26.40;99.90;;;;;;5050885;28;20044;-76
2023/09/07 08:07:09;;;;;;;366.83;346.90;;;26.50;99.90;;;;;;5051726;28;20395;-77
2023/09/07 08:09:35;;;;;;;340.73;322.20;;;26.90;99.90;;;;;;5052169;28;20048;-75
2023/09/07 08:12:02;;;;;;;405.50;382.40;;;27.00;99.90;;;;;;5051676;28;20036;-74
2023/09/07 08:14:28;;;;;;;384.20;362.80;;;27.10;99.90;;;;;;5034209;28;20045;-75
2023/09/07 08:16:56;;;;;;;423.08;398.73;;;27.40;99.90;;;;;;5049390;28;20052;-74
2023/09/07 08:19:22;;;;;;;435.27;410.15;;;27.50;99.90;;;;;;5051962;28;20040;-74
2023/09/07 08:21:48;;;;;;;399.40;375.92;;;27.80;99.90;;;;;;5051690;28;20029;-75
2023/09/07 08:24:14;;;;;;;398.38;375.73;;;28.10;99.90;;;;;;5051136;28;20045;-75
2023/09/07 08:26:40;;;;;;;347.25;327.40;;;28.40;99.90;;;;;;5051225;28;20037;-75
2023/09/07 08:29:08;;;;;;;376.92;354.80;;;28.50;99.90;;;;;;5050690;28;20032;-77
2023/09/07 08:31:35;;;;;;;447.95;421.13;;;28.70;99.90;;;;;;5050697;28;20044;-77
2023/09/07 08:34:03;;;;;;;276.77;261.48;;;28.90;99.90;;;;;;5050286;28;20048;-76
2023/09/07 08:36:32;;;;;;;235.05;221.38;;;29.30;99.90;;;;;;5051225;28;20131;-75
2023/09/07 08:39:05;;;;;;;297.27;280.40;;;29.50;99.90;;;;;;5051646;28;20044;-74
2023/09/07 08:41:43;;;;;;;281.15;265.58;;;29.80;99.90;;;;;;5051366;28;20025;-75
2023/09/07 08:44:14;;;;;;;331.83;313.73;;;30.00;99.90;;;;;;5050936;28;20044;-75
2023/09/07 08:46:41;;;;;;;337.02;318.25;;;30.10;99.90;;;;;;5051023;28;20395;-75
2023/09/07 08:49:08;;;;;;;315.38;297.58;;;30.30;99.90;;;;;;5033966;28;20048;-75
2023/09/07 08:51:37;;;;;;;409.92;385.42;;;30.40;99.90;;;;;;5049372;28;20398;-75
2023/09/07 08:54:03;;;;;;;361.23;340.90;;;30.60;99.90;;;;;;5050470;28;20083;-74
2023/09/07 08:56:30;;;;;;;521.88;489.80;;;30.70;99.90;;;;;;5051107;28;20052;-75
2023/09/07 08:58:56;;;;;;;542.88;509.70;;;30.90;99.90;;;;;;5050929;28;20049;-75
2023/09/07 09:01:22;;;;;;;440.23;414.48;;;31.20;99.90;;;;;;5050422;28;20403;-74
2023/09/07 09:03:49;;;;;;;528.35;496.15;;;31.40;99.90;;;;;;5051539;28;20036;-75
2023/09/07 09:06:18;;;;;;;557.83;523.28;;;31.30;99.90;;;;;;5051004;28;20491;-77
2023/09/07 09:08:49;;;;;;;659.47;618.60;;;31.50;99.90;;;;;;5036266;28;20040;-77
2023/09/07 09:11:15;;;;;;;;;;;31.30;99.90;;;;;;5043201;28;20025;-77
2023/09/07 09:13:41;;;;;;;1999.90;999.90;;;31.50;99.90;;;;;;5054666;28;19924;-74
2023/09/07 09:16:08;;;;;;;1999.90;999.90;;;31.70;99.90;;;;;;5053077;28;20037;-77
2023/09/07 09:18:34;;;;;;;1999.90;999.90;;;31.90;99.90;;;;;;5055020;28;20076;-75
2023/09/07 09:21:00;;;;;;;1999.90;999.90;;;32.10;99.90;;;;;;5054636;28;20767;-75
2023/09/07 09:23:38;;;;;;;1999.90;999.90;;;32.00;99.90;;;;;;5055075;28;20037;-77
2023/09/07 09:26:05;;;;;;;1999.90;999.90;;;31.90;99.90;;;;;;5054729;28;20029;-77
2023/09/07 09:28:31;;;;;;;1999.90;999.90;;;32.00;99.90;;;;;;5054276;28;20483;-77
2023/09/07 09:30:59;;;;;;;1999.90;999.90;;;32.00;99.90;;;;;;5054045;28;20475;-77
2023/09/07 09:33:25;;;;;;;1999.90;999.90;;;32.00;99.90;;;;;;5053219;28;20056;-76
2023/09/07 09:35:53;;;;;;;1999.90;999.90;;;32.00;99.90;;;;;;5054156;28;20483;-77
2023/09/07 09:38:19;;;;;;;1999.90;999.90;;;32.10;99.90;;;;;;5053615;28;20391;-76
2023/09/07 09:40:45;;;;;;;1999.90;999.90;;;32.20;99.90;;;;;;5054395;28;20029;-75
2023/09/07 09:43:12;;;;;;;1999.90;999.90;;;32.30;99.90;;;;;;5054154;28;20383;-75
2023/09/07 09:45:39;;;;;;;1999.90;999.90;;;32.30;99.90;;;;;;5052628;28;20399;-75
2023/09/07 09:48:05;;;;;;;1999.90;999.90;;;32.40;99.90;;;;;;5052166;28;20083;-75
2023/09/07 09:50:33;;;;;;;1999.90;999.90;;;32.40;99.90;;;;;;5054280;28;20436;-75
2023/09/07 09:52:59;;;;;;;1999.90;999.90;;;32.30;99.90;;;;;;5054003;28;20041;-74
2023/09/07 09:55:25;;;;;;;1999.90;999.90;;;32.20;99.90;;;;;;5052833;28;20021;-74
2023/09/07 09:57:51;;;;;;;1999.90;999.90;;;32.10;99.90;;;;;;5052781;28;20364;-75
2023/09/07 10:00:25;;;;;;;1999.90;999.90;;;32.10;99.90;;;;;;5051398;28;20041;-75
2023/09/07 10:03:00;;;;;;;1999.90;999.90;;;32.10;99.90;;;;;;5052329;28;20052;-74
2023/09/07 10:05:26;;;;;;;1999.90;999.90;;;32.20;99.90;;;;;;5052695;28;20025;-74
2023/09/07 10:07:52;;;;;;;1999.90;999.90;;;32.20;99.90;;;;;;5052904;28;20032;-75
2023/09/07 10:10:19;;;;;;;1999.90;999.90;;;32.30;99.90;;;;;;5053781;28;20036;-75
2023/09/07 10:12:50;;;;;;;1999.90;999.90;;;32.50;99.90;;;;;;5053722;28;20025;-74
2023/09/07 10:15:38;;;;;;;1999.90;999.90;;;32.60;99.90;;;;;;5053321;28;20033;-75
2023/09/07 10:18:15;;;;;;;1999.90;999.90;;;32.60;99.90;;;;;;5051765;28;20049;-74
2023/09/07 10:20:51;;;;;;;1999.90;999.90;;;32.80;99.90;;;;;;5053537;28;20051;-74
2023/09/07 10:23:18;;;;;;;1999.90;999.90;;;32.80;99.90;;;;;;5052033;28;20037;-74
2023/09/07 10:25:52;;;;;;;1999.90;999.90;;;32.90;99.90;;;;;;5053120;28;20033;-75
2023/09/07 10:28:19;;;;;;;1999.90;999.90;;;33.00;99.90;;;;;;5052731;28;20029;-75
2023/09/07 10:30:45;;;;;;;1999.90;999.90;;;33.10;99.90;;;;;;5051554;28;20044;-74
2023/09/07 10:33:21;;;;;;;1999.90;999.90;;;33.10;99.90;;;;;;5052150;28;20052;-75
2023/09/07 10:35:47;;;;;;;1999.90;999.90;;;33.10;99.90;;;;;;5053409;28;20025;-75
2023/09/07 10:38:14;;;;;;;1999.90;999.90;;;33.20;99.90;;;;;;5053492;28;20040;-75
2023/09/07 10:40:41;;;;;;;1999.90;999.90;;;33.10;99.80;;;;;;5052585;28;20044;-74
2023/09/07 10:43:08;;;;;;;1999.90;999.90;;;33.00;99.90;;;;;;5035974;28;20033;-75
2023/09/07 10:45:34;;;;;;;1999.90;999.90;;;33.10;99.90;;;;;;5051284;28;20024;-75
2023/09/07 10:48:00;;;;;;;1999.90;999.90;;;33.20;99.70;;;;;;5053465;28;20479;-75
2023/09/07 10:50:26;;;;;;;1999.90;999.90;;;33.20;98.20;;;;;;5051858;28;20040;-76
2023/09/07 10:52:54;;;;;;;1999.90;999.90;;;33.20;99.00;;;;;;5051956;28;20021;-75
2023/09/07 10:55:20;;;;;;;1999.90;999.90;;;33.30;99.10;;;;;;5052674;28;20021;-74
2023/09/07 10:57:46;;;;;;;1999.90;999.90;;;33.40;98.90;;;;;;5053216;28;20029;-75
2023/09/07 11:00:13;;;;;;;1999.90;999.90;;;33.50;98.50;;;;;;5052168;28;20033;-75
2023/09/07 11:02:40;;;;;;;1999.90;999.90;;;33.50;97.80;;;;;;5051206;28;20368;-74
2023/09/07 11:05:07;;;;;;;1999.90;999.90;;;33.50;96.30;;;;;;5052949;28;20505;-75
2023/09/07 11:07:33;;;;;;;1999.90;999.90;;;33.50;96.80;;;;;;5042333;28;20030;-75
2023/09/07 11:09:59;;;;;;;1999.90;999.90;;;33.60;96.50;;;;;;5031655;28;20025;-75
2023/09/07 11:12:25;;;;;;;1999.90;999.90;;;33.60;96.90;;;;;;5050033;28;20033;-75
2023/09/07 11:14:52;;;;;;;1999.90;999.90;;;33.70;96.20;;;;;;5052624;28;20052;-75
2023/09/07 11:17:18;;;;;;;1999.90;999.90;;;33.70;96.80;;;;;;5033146;28;20403;-75
2023/09/07 11:19:44;;;;;;;1999.90;999.90;;;33.70;95.50;;;;;;5052820;28;20471;-75
2023/09/07 11:22:10;;;;;;;1999.90;999.90;;;33.60;96.10;;;;;;5052087;28;20375;-75
2023/09/07 11:24:37;;;;;;;1999.90;999.90;;;33.70;95.60;;;;;;5051238;28;20382;-76
2023/09/07 11:27:03;;;;;;;1999.90;999.90;;;33.70;95.60;;;;;;5051048;28;20021;-75
2023/09/07 11:29:32;;;;;;;1999.90;999.90;;;33.70;95.30;;;;;;5051939;28;20036;-75
2023/09/07 11:32:12;;;;;;;1999.90;999.90;;;33.70;94.30;;;;;;5051950;28;20058;-75
2023/09/07 11:34:49;;;;;;;;;;;33.80;94.40;;;;;;5053261;28;20411;-75
2023/09/07 11:37:15;;;;;;;1999.90;999.90;;;33.90;94.70;;;;;;5052107;28;19991;-75
2023/09/07 11:39:41;;;;;;;1999.90;999.90;;;33.90;94.60;;;;;;5051961;28;20041;-75
2023/09/07 11:42:07;;;;;;;1999.90;999.90;;;33.90;94.00;;;;;;5052048;28;20033;-75
2023/09/07 11:44:33;;;;;;;1999.90;999.90;;;34.00;93.40;;;;;;5052690;28;20037;-75
2023/09/07 11:46:59;;;;;;;1999.90;999.90;;;34.00;93.30;;;;;;5033285;28;20033;-75
2023/09/07 11:49:25;;;;;;;1999.90;999.90;;;34.00;93.10;;;;;;5052357;28;20036;-75
2023/09/07 11:51:52;;;;;;;1999.90;999.90;;;34.00;91.80;;;;;;5052049;28;20375;-75
2023/09/07 11:54:18;;;;;;;1999.90;999.90;;;34.00;92.80;;;;;;5051965;28;20493;-75
2023/09/07 11:56:45;;;;;;;1999.90;999.90;;;34.00;92.10;;;;;;5050510;28;20029;-75
2023/09/07 11:59:11;;;;;;;1999.90;999.90;;;34.10;92.30;;;;;;5052137;28;20040;-75
2023/09/07 12:01:39;;;;;;;1999.90;999.90;;;34.10;92.40;;;;;;5051249;28;20438;-75
2023/09/07 12:04:06;;;;;;;1999.90;999.90;;;34.10;91.10;;;;;;5051803;28;20045;-75
2023/09/07 12:06:32;;;;;;;1999.90;999.90;;;34.10;90.50;;;;;;5050650;28;20108;-76
2023/09/07 12:09:11;;;;;;;1999.90;999.90;;;34.00;90.60;;;;;;5031802;28;20029;-75
2023/09/07 12:11:38;;;;;;;1999.90;999.90;;;34.00;90.90;;;;;;5042878;28;20044;-75